Twisp, Washington
Current Conditions -  °F | °C
As of 12:53 AM on Thursday 23 Oct 2014 (Local Time) from KOMK Reporting Station
Overcast Overcast  
Wind Chill: 54°   Ceiling: 2700
Heat Index: 54°   Visibility: 10mi
Dew Point: 50°   Wind: 7mph
Humidity: 86%   Direction: 180°S
Pressure: 29.64"   Gusts: NA
Location:  48.36°N, 120.12°W
Report Text: KOMK 230753Z AUTO 18006KT 10SM OVC027 12/10 A2964 RMK AO2 SLP039 T01220100 401280083
Loading
Personal Weather Stations






























Interactive Weather Map
Tropical Storm Tracking
New forecast layout! Learn more

10-Day Weather Forecast

Advertisements
Track Severe Weather on mobile